createdAt,value
2018-09-30T00:00:32.883Z,65.00
2018-09-30T00:03:01.326Z,65.20
2018-09-30T00:05:29.745Z,65.80
2018-09-30T00:07:58.207Z,66.30
2018-09-30T00:10:26.655Z,66.60
2018-09-30T00:12:55.124Z,67.20
2018-09-30T00:15:23.551Z,67.80
2018-09-30T00:17:51.997Z,68.10
2018-09-30T00:20:20.450Z,68.40
2018-09-30T00:22:48.891Z,68.20
2018-09-30T00:25:22.741Z,68.10
2018-09-30T00:27:51.169Z,68.00
2018-09-30T00:30:19.625Z,67.60
2018-09-30T00:32:48.085Z,67.50
2018-09-30T00:35:16.544Z,66.60
2018-09-30T00:37:44.968Z,66.90
2018-09-30T00:40:13.445Z,67.90
2018-09-30T00:42:41.883Z,67.60
2018-09-30T00:45:10.339Z,67.40
2018-09-30T00:47:38.761Z,67.90
2018-09-30T00:50:07.217Z,68.10
2018-09-30T00:52:35.642Z,66.80
2018-09-30T00:55:04.121Z,67.30
2018-09-30T00:57:32.560Z,68.10
2018-09-30T01:00:01.018Z,68.10
2018-09-30T01:02:29.451Z,67.80
2018-09-30T01:04:57.897Z,67.60
2018-09-30T01:07:26.324Z,68.70
2018-09-30T01:09:54.756Z,68.80
2018-09-30T01:12:23.212Z,69.30
2018-09-30T01:14:51.653Z,69.70
2018-09-30T01:17:20.118Z,71.00
2018-09-30T01:19:48.540Z,72.50
2018-09-30T01:22:16.999Z,73.20
2018-09-30T01:24:45.421Z,72.60
2018-09-30T01:27:13.850Z,73.40
2018-09-30T01:29:42.292Z,73.50
2018-09-30T01:32:10.725Z,73.30
2018-09-30T01:34:39.188Z,73.10
2018-09-30T01:37:07.621Z,73.00
2018-09-30T01:39:36.069Z,73.20
2018-09-30T01:42:04.576Z,73.10
2018-09-30T01:44:33.006Z,74.80
2018-09-30T01:47:01.437Z,76.00
2018-09-30T01:49:29.940Z,76.20
2018-09-30T01:53:04.691Z,76.50
2018-09-30T01:55:33.153Z,76.70
2018-09-30T01:58:01.581Z,76.30
2018-09-30T02:00:30.027Z,76.60
2018-09-30T02:02:58.467Z,76.90
2018-09-30T02:05:26.922Z,77.20
2018-09-30T02:07:55.349Z,77.10
2018-09-30T02:10:23.792Z,76.40
2018-09-30T02:12:52.204Z,77.40
2018-09-30T02:15:20.678Z,77.40
2018-09-30T02:17:49.111Z,77.00
2018-09-30T02:20:17.548Z,77.30
2018-09-30T02:22:46.001Z,77.90
2018-09-30T02:25:14.445Z,77.60
2018-09-30T02:27:42.868Z,77.40
2018-09-30T02:30:11.320Z,78.70
2018-09-30T02:32:39.758Z,79.30
2018-09-30T02:35:08.204Z,78.90
2018-09-30T02:37:36.647Z,79.20
2018-09-30T02:40:05.165Z,79.90
2018-09-30T02:42:33.630Z,80.00
2018-09-30T02:45:02.067Z,80.20
2018-09-30T02:47:30.524Z,81.20
2018-09-30T02:49:58.959Z,81.90
2018-09-30T02:52:27.410Z,82.10
2018-09-30T02:54:55.848Z,82.20
2018-09-30T02:57:24.347Z,81.90
2018-09-30T02:59:52.777Z,82.20
2018-09-30T03:02:21.276Z,82.10
2018-09-30T03:04:49.777Z,82.30
2018-09-30T03:07:23.578Z,83.00
2018-09-30T03:09:52.005Z,82.80
2018-09-30T03:12:20.551Z,83.50
2018-09-30T03:14:49.007Z,83.80
2018-09-30T03:17:17.492Z,84.30
2018-09-30T03:19:45.970Z,84.20
2018-09-30T03:22:14.419Z,84.80
2018-09-30T03:24:42.871Z,85.10
2018-09-30T03:27:11.477Z,85.90
2018-09-30T03:29:39.943Z,87.30
2018-09-30T03:32:08.428Z,87.30
2018-09-30T03:34:37.007Z,86.90
2018-09-30T03:37:05.471Z,87.30
2018-09-30T03:39:33.993Z,87.40
2018-09-30T03:42:02.492Z,88.20
2018-09-30T03:44:30.973Z,88.50
2018-09-30T03:46:59.421Z,88.50
2018-09-30T03:49:27.909Z,88.40
2018-09-30T03:51:56.337Z,88.10
2018-09-30T03:54:24.807Z,88.50
2018-09-30T03:56:53.246Z,88.40
2018-09-30T03:59:21.698Z,88.50
2018-09-30T04:01:50.147Z,89.00
2018-09-30T04:04:18.624Z,89.80
2018-09-30T04:06:47.063Z,89.30
2018-09-30T04:09:15.523Z,88.90
2018-09-30T04:11:43.981Z,88.40
2018-09-30T04:14:12.436Z,87.30
2018-09-30T04:16:40.901Z,88.00
2018-09-30T04:19:09.401Z,87.40
2018-09-30T04:21:37.867Z,87.20
2018-09-30T04:24:10.040Z,87.10
2018-09-30T04:26:39.601Z,87.00
2018-09-30T04:29:08.346Z,85.80
2018-09-30T04:31:36.846Z,84.90
2018-09-30T04:34:05.580Z,85.10
2018-09-30T04:36:34.962Z,84.40
2018-09-30T04:39:04.797Z,83.50
2018-09-30T04:41:33.261Z,82.80
2018-09-30T04:44:01.704Z,81.50
2018-09-30T04:46:30.136Z,80.80
2018-09-30T04:48:58.620Z,80.20
2018-09-30T04:51:27.052Z,79.50
2018-09-30T04:53:55.522Z,80.20
2018-09-30T04:56:23.960Z,81.40
2018-09-30T04:58:52.421Z,82.80
2018-09-30T05:01:20.860Z,84.50
2018-09-30T05:03:49.366Z,85.70
2018-09-30T05:06:17.825Z,86.50
2018-09-30T05:08:46.252Z,86.70
2018-09-30T05:11:14.709Z,86.60
2018-09-30T05:13:43.142Z,86.60
2018-09-30T05:16:11.644Z,86.90
2018-09-30T05:18:40.061Z,87.80
2018-09-30T05:21:08.569Z,88.20
2018-09-30T05:23:37.010Z,88.80
2018-09-30T05:26:05.463Z,88.60
2018-09-30T05:28:33.907Z,88.60
2018-09-30T05:31:02.387Z,89.10
2018-09-30T05:33:30.839Z,88.50
2018-09-30T05:35:59.313Z,88.80
2018-09-30T05:38:27.755Z,88.10
2018-09-30T05:40:56.221Z,88.30
2018-09-30T05:43:24.658Z,87.90
2018-09-30T05:45:53.138Z,87.50
2018-09-30T05:48:21.633Z,87.50
2018-09-30T05:50:50.083Z,86.50
2018-09-30T05:53:18.514Z,85.30
2018-09-30T05:55:46.973Z,85.20
2018-09-30T05:58:15.411Z,84.70
2018-09-30T06:00:43.881Z,85.10
2018-09-30T06:03:12.319Z,84.20
2018-09-30T06:05:40.762Z,83.50
2018-09-30T06:08:09.223Z,83.20
2018-09-30T06:10:37.658Z,82.40
2018-09-30T06:13:06.279Z,81.70
2018-09-30T06:15:34.728Z,81.60
2018-09-30T06:18:03.134Z,80.90
2018-09-30T06:20:31.561Z,80.50
2018-09-30T06:22:59.991Z,80.60
2018-09-30T06:25:28.706Z,80.40
2018-09-30T06:27:57.137Z,79.60
2018-09-30T06:30:25.695Z,79.70
2018-09-30T06:32:54.119Z,79.80
2018-09-30T06:35:22.595Z,78.80
2018-09-30T06:37:51.043Z,77.70
2018-09-30T06:40:19.589Z,77.60
2018-09-30T06:42:48.054Z,77.20
2018-09-30T06:45:16.541Z,76.40
2018-09-30T06:47:44.999Z,75.80
2018-09-30T06:50:13.444Z,74.90
2018-09-30T06:52:41.904Z,74.50
2018-09-30T06:55:10.387Z,74.10
2018-09-30T06:57:38.841Z,73.80
2018-09-30T07:00:07.321Z,73.20
2018-09-30T07:02:35.774Z,72.80
2018-09-30T07:05:04.260Z,72.80
2018-09-30T07:07:32.714Z,72.90
2018-09-30T07:10:01.156Z,73.00
2018-09-30T07:12:29.699Z,73.70
2018-09-30T07:14:58.154Z,73.20
2018-09-30T07:17:26.643Z,72.40
2018-09-30T07:19:55.097Z,72.20
2018-09-30T07:22:23.605Z,71.80
2018-09-30T07:24:52.060Z,71.90
2018-09-30T07:27:20.493Z,71.20
2018-09-30T07:29:48.905Z,70.80
2018-09-30T07:32:17.372Z,70.60
2018-09-30T07:34:45.817Z,70.20
2018-09-30T07:37:14.283Z,70.70
2018-09-30T07:39:42.705Z,70.50
2018-09-30T07:42:11.195Z,70.50
2018-09-30T07:44:39.681Z,70.00
2018-09-30T07:47:08.320Z,70.00
2018-09-30T07:49:36.787Z,70.40
2018-09-30T07:52:05.445Z,70.40
2018-09-30T07:54:33.909Z,70.10
2018-09-30T07:57:02.431Z,69.80
2018-09-30T07:59:30.868Z,68.90
2018-09-30T08:01:59.329Z,68.90
2018-09-30T08:04:27.766Z,68.60
2018-09-30T08:06:56.244Z,67.20
2018-09-30T08:09:24.688Z,66.40
2018-09-30T08:11:53.156Z,66.00
2018-09-30T08:14:21.622Z,65.80
2018-09-30T08:16:50.175Z,66.80
2018-09-30T08:19:18.575Z,66.00
2018-09-30T08:21:47.069Z,66.00
2018-09-30T08:24:15.625Z,66.10
2018-09-30T08:26:44.063Z,66.80
2018-09-30T08:29:12.529Z,66.00
2018-09-30T08:31:40.971Z,65.50
2018-09-30T08:34:09.450Z,64.80
2018-09-30T08:36:38.077Z,64.40
2018-09-30T08:39:08.033Z,64.10
2018-09-30T08:41:36.528Z,64.00
2018-09-30T08:44:05.497Z,63.40
2018-09-30T08:46:34.082Z,64.30
2018-09-30T08:49:02.576Z,63.90
2018-09-30T08:51:31.139Z,63.50
2018-09-30T08:53:59.725Z,62.90
2018-09-30T08:56:28.089Z,62.90
2018-09-30T08:58:56.597Z,62.40
2018-09-30T09:01:25.081Z,62.70
2018-09-30T09:03:53.771Z,62.60
2018-09-30T09:06:22.410Z,62.70
2018-09-30T09:08:50.953Z,61.20
2018-09-30T09:11:19.414Z,61.30
2018-09-30T09:13:47.909Z,61.40
2018-09-30T09:16:16.393Z,61.30
2018-09-30T09:18:44.872Z,61.50
2018-09-30T09:21:13.363Z,61.40
2018-09-30T09:23:41.889Z,61.10
2018-09-30T09:26:10.415Z,60.70
2018-09-30T09:28:38.958Z,60.10
2018-09-30T09:31:07.467Z,60.10
2018-09-30T09:33:35.916Z,60.30
2018-09-30T09:36:04.424Z,60.40
2018-09-30T09:38:32.988Z,60.20
2018-09-30T09:41:01.410Z,60.40
2018-09-30T09:43:29.876Z,59.70
2018-09-30T09:45:58.622Z,59.30
2018-09-30T09:48:27.073Z,58.60
2018-09-30T09:50:55.578Z,58.50
2018-09-30T09:53:24.138Z,58.20
2018-09-30T09:55:52.580Z,58.50
2018-09-30T09:58:21.043Z,57.90
2018-09-30T10:00:49.772Z,58.00
2018-09-30T10:03:18.227Z,57.50
2018-09-30T10:05:46.643Z,57.20
2018-09-30T10:08:15.524Z,57.50
2018-09-30T10:10:43.929Z,57.20
2018-09-30T10:13:12.448Z,57.00
2018-09-30T10:15:40.884Z,56.60
2018-09-30T10:18:09.324Z,56.50
2018-09-30T10:20:37.777Z,56.40
2018-09-30T10:23:06.279Z,56.10
2018-09-30T10:25:34.708Z,56.00
2018-09-30T10:28:03.145Z,55.80
2018-09-30T10:30:31.768Z,55.20
2018-09-30T10:33:00.251Z,55.10
2018-09-30T10:35:28.750Z,55.40
2018-09-30T10:37:57.164Z,54.50
2018-09-30T10:40:25.711Z,54.30
2018-09-30T10:42:54.135Z,54.90
2018-09-30T10:45:22.603Z,54.50
2018-09-30T10:47:51.072Z,54.50
2018-09-30T10:50:19.590Z,54.60
2018-09-30T10:52:48.033Z,54.80
2018-09-30T10:55:16.570Z,55.00
2018-09-30T10:57:45.008Z,54.20
2018-09-30T11:00:13.482Z,53.90
2018-09-30T11:02:41.931Z,54.10
2018-09-30T11:05:10.500Z,54.10
2018-09-30T11:07:39.013Z,54.10
2018-09-30T11:10:07.612Z,53.90
2018-09-30T11:12:36.033Z,54.40
2018-09-30T11:15:04.730Z,54.00
2018-09-30T11:17:33.222Z,53.90
2018-09-30T11:20:01.721Z,53.80
2018-09-30T11:22:30.262Z,53.00
2018-09-30T11:24:58.811Z,53.10
2018-09-30T11:27:27.283Z,52.90
2018-09-30T11:29:55.764Z,53.70
2018-09-30T11:32:24.266Z,53.10
2018-09-30T11:34:52.733Z,52.60
2018-09-30T11:37:21.207Z,52.90
2018-09-30T11:39:49.714Z,53.70
2018-09-30T11:42:18.198Z,52.90
2018-09-30T11:44:46.665Z,53.00
2018-09-30T11:47:15.147Z,52.50
2018-09-30T11:49:43.627Z,52.30
2018-09-30T11:52:12.071Z,52.10
2018-09-30T11:54:40.551Z,51.60
2018-09-30T11:57:09.028Z,51.80
2018-09-30T11:59:37.549Z,51.80
2018-09-30T12:02:06.093Z,52.10
2018-09-30T12:04:34.589Z,52.00
2018-09-30T12:07:03.096Z,52.00
2018-09-30T12:09:31.539Z,52.00
2018-09-30T12:12:00.051Z,52.00
2018-09-30T12:14:28.502Z,51.90
2018-09-30T12:16:57.008Z,52.10
2018-09-30T12:19:25.468Z,51.60
2018-09-30T12:21:53.942Z,51.80
2018-09-30T12:24:22.445Z,51.10
2018-09-30T12:26:50.945Z,50.90
2018-09-30T12:29:19.437Z,51.10
2018-09-30T12:31:47.934Z,51.50
2018-09-30T12:34:16.377Z,51.50
2018-09-30T12:36:44.857Z,51.30
2018-09-30T12:39:13.354Z,51.30
2018-09-30T12:41:41.825Z,51.50
2018-09-30T12:44:10.270Z,51.00
2018-09-30T12:46:38.765Z,50.80
2018-09-30T12:49:07.271Z,50.60
2018-09-30T12:51:35.783Z,51.10
2018-09-30T12:54:04.237Z,50.80
2018-09-30T12:56:32.712Z,51.00
2018-09-30T12:59:01.529Z,51.20
2018-09-30T13:01:30.004Z,50.60
2018-09-30T13:03:58.559Z,51.00
2018-09-30T13:06:27.042Z,51.00
2018-09-30T13:08:55.514Z,50.80
2018-09-30T13:11:24.133Z,50.60
2018-09-30T13:13:52.609Z,50.50
2018-09-30T13:16:21.122Z,50.50
2018-09-30T13:18:49.728Z,50.30
2018-09-30T13:21:18.965Z,50.40
2018-09-30T13:23:47.454Z,50.50
2018-09-30T13:26:16.011Z,50.70
2018-09-30T13:28:44.474Z,50.40
2018-09-30T13:31:12.933Z,50.20
2018-09-30T13:33:41.792Z,50.30
2018-09-30T13:36:10.284Z,50.30
2018-09-30T13:38:39.010Z,50.30
2018-09-30T13:41:07.761Z,50.50
2018-09-30T13:43:36.043Z,50.20
2018-09-30T13:46:04.554Z,50.00
2018-09-30T13:48:33.040Z,50.10
2018-09-30T13:51:01.561Z,50.30
2018-09-30T13:53:29.989Z,50.30
2018-09-30T13:55:58.425Z,50.40
2018-09-30T13:58:26.990Z,50.50
2018-09-30T14:00:55.420Z,50.00
2018-09-30T14:03:23.893Z,50.20
2018-09-30T14:05:52.351Z,50.80
2018-09-30T14:08:20.821Z,50.70
2018-09-30T14:10:49.274Z,50.90
2018-09-30T14:13:17.750Z,51.00
2018-09-30T14:15:46.224Z,52.20
2018-09-30T14:18:14.707Z,51.20
2018-09-30T14:20:43.166Z,50.90
2018-09-30T14:23:11.648Z,50.30
2018-09-30T14:25:40.143Z,50.00
2018-09-30T14:28:08.629Z,50.40
2018-09-30T14:30:37.099Z,51.10
2018-09-30T14:33:05.660Z,51.00
2018-09-30T14:35:34.179Z,50.70
2018-09-30T14:38:02.684Z,50.50
2018-09-30T14:40:31.159Z,50.00
2018-09-30T14:42:59.631Z,50.20
2018-09-30T14:45:28.124Z,50.80
2018-09-30T14:47:56.588Z,50.60
2018-09-30T14:50:25.254Z,50.70
2018-09-30T14:52:53.709Z,50.40
2018-09-30T14:55:22.167Z,51.10
2018-09-30T14:57:50.614Z,51.20
2018-09-30T15:00:19.053Z,51.20
2018-09-30T15:02:47.549Z,51.30
2018-09-30T15:05:16.012Z,51.50
2018-09-30T15:07:44.463Z,51.60
2018-09-30T15:10:12.940Z,51.70
2018-09-30T15:12:41.388Z,51.20
2018-09-30T15:15:09.897Z,51.30
2018-09-30T15:17:38.484Z,50.90
2018-09-30T15:20:06.944Z,51.00
2018-09-30T15:22:35.825Z,50.80
2018-09-30T15:25:04.367Z,51.30
2018-09-30T15:27:32.810Z,51.60
2018-09-30T15:30:01.294Z,51.60
2018-09-30T15:32:29.746Z,51.40
2018-09-30T15:34:58.232Z,51.70
2018-09-30T15:37:26.819Z,52.30
2018-09-30T15:39:55.303Z,51.40
2018-09-30T15:42:23.844Z,51.90
2018-09-30T15:44:52.372Z,51.50
2018-09-30T15:47:21.159Z,51.80
2018-09-30T15:49:49.625Z,51.80
2018-09-30T15:52:18.084Z,51.60
2018-09-30T15:54:46.621Z,51.90
2018-09-30T15:57:15.102Z,52.20
2018-09-30T15:59:43.579Z,52.40
2018-09-30T16:02:12.067Z,52.30
2018-09-30T16:04:40.607Z,52.60
2018-09-30T16:07:09.061Z,52.90
2018-09-30T16:09:37.571Z,53.20
2018-09-30T16:12:06.097Z,53.00
2018-09-30T16:14:34.573Z,53.00
2018-09-30T16:17:03.066Z,53.30
2018-09-30T16:19:31.570Z,53.70
2018-09-30T16:22:00.035Z,53.90
2018-09-30T16:24:28.539Z,54.20
2018-09-30T16:26:57.092Z,54.20
2018-09-30T16:29:25.577Z,54.10
2018-09-30T16:31:54.053Z,54.60
2018-09-30T16:34:22.585Z,54.30
2018-09-30T16:36:51.090Z,54.60
2018-09-30T16:39:19.558Z,55.90
2018-09-30T16:41:48.121Z,55.70
2018-09-30T16:44:16.574Z,56.20
2018-09-30T16:46:45.099Z,56.20
2018-09-30T16:49:13.568Z,56.60
2018-09-30T16:51:42.076Z,56.20
2018-09-30T16:54:10.550Z,56.20
2018-09-30T16:56:39.141Z,56.10
2018-09-30T16:59:07.577Z,56.60
2018-09-30T17:01:36.278Z,56.50
2018-09-30T17:04:04.778Z,57.00
2018-09-30T17:06:33.314Z,57.10
2018-09-30T17:09:01.765Z,57.40
2018-09-30T17:11:30.236Z,57.50
2018-09-30T17:13:58.708Z,57.40
2018-09-30T17:16:27.219Z,57.70
2018-09-30T17:18:55.715Z,57.90
2018-09-30T17:21:24.263Z,58.20
2018-09-30T17:23:52.741Z,58.50
2018-09-30T17:26:21.280Z,59.30
2018-09-30T17:28:49.785Z,59.50
2018-09-30T17:31:18.346Z,59.60
2018-09-30T17:33:46.747Z,60.00
2018-09-30T17:36:15.247Z,60.70
2018-09-30T17:38:43.706Z,61.30
2018-09-30T17:41:12.222Z,61.20
2018-09-30T17:43:40.714Z,61.40
2018-09-30T17:46:09.352Z,61.20
2018-09-30T17:48:37.797Z,63.50
2018-09-30T17:51:06.380Z,62.10
2018-09-30T17:53:34.809Z,62.70
2018-09-30T17:56:03.311Z,62.60
2018-09-30T17:58:31.755Z,63.50
2018-09-30T18:01:00.279Z,63.60
2018-09-30T18:03:28.750Z,62.90
2018-09-30T18:05:57.221Z,63.90
2018-09-30T18:08:25.678Z,63.90
2018-09-30T18:10:54.268Z,64.60
2018-09-30T18:13:22.744Z,65.30
2018-09-30T18:15:51.287Z,65.70
2018-09-30T18:18:19.765Z,65.00
2018-09-30T18:20:48.269Z,64.80
2018-09-30T18:23:16.794Z,64.30
2018-09-30T18:25:45.263Z,64.40
2018-09-30T18:28:13.749Z,64.40
2018-09-30T18:30:42.243Z,64.40
2018-09-30T18:33:10.776Z,64.60
2018-09-30T18:35:39.340Z,64.50
2018-09-30T18:38:07.847Z,66.20
2018-09-30T18:40:45.027Z,66.90
2018-09-30T18:43:14.073Z,67.10
2018-09-30T18:45:42.821Z,68.20
2018-09-30T18:48:11.516Z,67.80
2018-09-30T18:50:40.285Z,68.20
2018-09-30T18:53:08.841Z,68.10
2018-09-30T18:55:37.380Z,69.00
2018-09-30T18:58:05.898Z,69.00
2018-09-30T19:00:34.445Z,69.50
2018-09-30T19:03:03.145Z,69.60
2018-09-30T19:05:31.678Z,69.80
2018-09-30T19:08:00.230Z,69.80
2018-09-30T19:10:28.797Z,69.80
2018-09-30T19:12:57.291Z,69.80
2018-09-30T19:15:25.740Z,69.80
2018-09-30T19:17:54.206Z,69.80
2018-09-30T19:20:22.672Z,70.00
2018-09-30T19:22:51.394Z,70.90
2018-09-30T19:25:19.835Z,71.20
2018-09-30T19:27:48.320Z,70.70
2018-09-30T19:30:16.897Z,71.40
2018-09-30T19:32:45.337Z,71.40
2018-09-30T19:35:13.825Z,71.10
2018-09-30T19:37:42.315Z,71.80
2018-09-30T19:40:10.792Z,72.20
2018-09-30T19:42:39.281Z,72.80
2018-09-30T19:45:07.735Z,73.50
2018-09-30T19:47:36.203Z,73.30
2018-09-30T19:50:04.717Z,72.70
2018-09-30T19:52:33.195Z,73.10
2018-09-30T19:55:01.627Z,74.00
2018-09-30T19:57:30.083Z,74.60
2018-09-30T19:59:58.535Z,75.20
2018-09-30T20:02:27.023Z,75.40
2018-09-30T20:04:55.542Z,76.30
2018-09-30T20:07:23.999Z,77.00
2018-09-30T20:09:52.450Z,77.00
2018-09-30T20:12:20.926Z,76.50
2018-09-30T20:14:49.386Z,76.10
2018-09-30T20:17:17.843Z,76.20
2018-09-30T20:19:46.316Z,76.10
2018-09-30T20:22:14.761Z,76.40
2018-09-30T20:24:43.235Z,76.60
2018-09-30T20:27:11.683Z,76.80
2018-09-30T20:29:40.161Z,76.80
2018-09-30T20:32:08.607Z,76.80
2018-09-30T20:34:37.077Z,76.80
2018-09-30T20:37:05.621Z,76.80
2018-09-30T20:39:34.048Z,76.70
2018-09-30T20:42:02.547Z,76.60
2018-09-30T20:44:31.353Z,77.00
2018-09-30T20:46:59.817Z,77.80
2018-09-30T20:49:28.312Z,77.20
2018-09-30T20:51:56.789Z,77.00
2018-09-30T20:54:25.258Z,77.30
2018-09-30T20:56:53.716Z,77.90
2018-09-30T20:59:22.172Z,77.80
2018-09-30T21:01:50.639Z,78.40
2018-09-30T21:04:19.151Z,78.30
2018-09-30T21:06:47.756Z,78.60
2018-09-30T21:09:17.671Z,78.70
2018-09-30T21:11:46.320Z,79.00
2018-09-30T21:14:14.808Z,79.50
2018-09-30T21:16:43.305Z,79.60
2018-09-30T21:19:11.800Z,79.40
2018-09-30T21:21:40.314Z,79.60
2018-09-30T21:24:08.911Z,79.90
2018-09-30T21:26:37.394Z,80.20
2018-09-30T21:29:05.979Z,81.10
2018-09-30T21:31:34.445Z,81.30
2018-09-30T21:34:02.979Z,81.40
2018-09-30T21:36:31.445Z,81.40
2018-09-30T21:38:59.909Z,81.80
2018-09-30T21:41:28.418Z,82.20
2018-09-30T21:43:56.871Z,82.60
2018-09-30T21:46:25.353Z,82.80
2018-09-30T21:48:54.300Z,82.30
2018-09-30T21:51:22.615Z,82.60
2018-09-30T21:53:51.066Z,83.00
2018-09-30T21:56:19.570Z,83.50
2018-09-30T21:58:48.059Z,83.70
2018-09-30T22:01:16.598Z,83.70
2018-09-30T22:03:44.997Z,82.80
2018-09-30T22:06:13.474Z,83.60
2018-09-30T22:08:41.914Z,83.70
2018-09-30T22:11:10.398Z,83.60
2018-09-30T22:13:38.922Z,83.70
2018-09-30T22:16:07.458Z,83.70
2018-09-30T22:18:35.895Z,83.70
2018-09-30T22:21:04.403Z,83.70
2018-09-30T22:23:32.844Z,83.60
2018-09-30T22:26:01.293Z,83.90
2018-09-30T22:28:29.740Z,84.20
2018-09-30T22:30:58.223Z,83.90
2018-09-30T22:33:26.661Z,84.30
2018-09-30T22:35:55.130Z,85.30
2018-09-30T22:38:23.574Z,86.20
2018-09-30T22:40:52.039Z,86.70
2018-09-30T22:43:20.478Z,86.70
2018-09-30T22:45:48.944Z,85.80
2018-09-30T22:48:17.393Z,86.00
2018-09-30T22:50:45.867Z,86.70
2018-09-30T22:53:14.375Z,87.50
2018-09-30T22:55:42.821Z,87.60
2018-09-30T22:58:11.249Z,87.50
2018-09-30T23:00:39.720Z,87.90
2018-09-30T23:03:08.169Z,88.40
2018-09-30T23:05:36.669Z,89.30
2018-09-30T23:08:05.131Z,88.50
2018-09-30T23:10:33.612Z,88.80
2018-09-30T23:13:02.057Z,89.50
2018-09-30T23:15:30.493Z,90.00
2018-09-30T23:17:58.955Z,90.20
2018-09-30T23:20:27.419Z,90.10
2018-09-30T23:22:55.874Z,90.20
2018-09-30T23:25:24.354Z,90.20
2018-09-30T23:27:52.831Z,90.20
2018-09-30T23:30:21.274Z,90.20
2018-09-30T23:32:49.737Z,90.20
2018-09-30T23:35:18.169Z,90.20
2018-09-30T23:37:46.648Z,90.30
2018-09-30T23:40:15.139Z,90.50
2018-09-30T23:42:43.590Z,90.30
2018-09-30T23:45:12.021Z,90.20
2018-09-30T23:47:40.493Z,90.10
2018-09-30T23:50:08.937Z,89.60
2018-09-30T23:52:37.397Z,88.70
2018-09-30T23:55:05.896Z,88.40
2018-09-30T23:57:34.357Z,88.20
